Time;durP1;ratioP1;P1;durP2;ratioP2;P2;SDS_P1;SDS_P2;PMS_P1;PMS_P2;Temp;Humidity;BMP_temperature;BMP_pressure;BME280_temperature;BME280_humidity;BME280_pressure;Samples;Min_cycle;Max_cycle;Signal;HPM_P1;HPM_P2
2022/08/11 00:05:09;;;;;;;3.20;2.13;;;;;;;20.29;51.66;97623.25;10497467;28;20040;-60
2022/08/11 00:10:29;;;;;;;3.20;2.03;;;;;;;20.29;51.67;97627.88;10496730;28;20044;-60
2022/08/11 00:15:49;;;;;;;3.05;1.92;;;;;;;20.28;51.66;97624.34;10502333;28;20492;-60
2022/08/11 00:21:10;;;;;;;4.57;2.20;;;;;;;20.28;51.69;97621.66;10509118;28;20061;-60
2022/08/11 00:26:30;;;;;;;2.00;1.80;;;;;;;20.29;51.65;97617.06;10504158;28;20045;-59
2022/08/11 00:31:53;;;;;;;3.47;2.20;;;;;;;20.28;51.71;97612.75;10503932;28;20067;-57
2022/08/11 00:37:19;;;;;;;2.88;1.95;;;;;;;20.28;51.67;97615.44;10507176;28;20048;-59
2022/08/11 00:42:42;;;;;;;2.13;1.80;;;;;;;20.28;51.65;97616.22;10503517;28;20048;-60
2022/08/11 00:48:18;;;;;;;2.13;1.73;;;;;;;20.27;51.73;97609.25;10503966;28;20399;-59
2022/08/11 00:53:53;;;;;;;2.63;1.85;;;;;;;20.28;51.76;97608.13;10508131;28;20404;-59
2022/08/11 00:59:43;;;;;;;2.17;1.80;;;;;;;20.27;51.83;97606.53;10503323;28;20053;-57
2022/08/11 01:05:11;;;;;;;2.92;1.80;;;;;;;20.28;51.70;97604.63;10500730;28;20495;-59
2022/08/11 01:11:01;;;;;;;2.30;1.80;;;;;;;20.27;51.72;97603.84;10511342;28;20056;-59
2022/08/11 01:16:54;;;;;;;2.55;1.70;;;;;;;20.27;51.87;97611.16;10540187;28;20063;-59
2022/08/11 01:22:34;;;;;;;2.35;2.00;;;;;;;20.26;51.90;97607.63;10498446;28;20056;-59
2022/08/11 01:28:38;;;;;;;2.03;1.83;;;;;;;20.27;51.87;97605.75;10509656;28;20419;-59
2022/08/11 01:34:03;;;;;;;2.28;1.70;;;;;;;20.27;51.85;97611.94;10488485;28;20097;-60
2022/08/11 01:40:04;;;;;;;2.50;1.92;;;;;;;20.28;51.86;97610.03;10511981;28;20059;-59
2022/08/11 01:45:36;;;;;;;1.70;1.60;;;;;;;20.26;51.97;97613.03;10482477;28;20105;-60
2022/08/11 01:51:19;;;;;;;2.10;1.65;;;;;;;20.26;52.04;97610.34;10508867;28;20052;-59
2022/08/11 01:56:55;;;;;;;2.20;1.70;;;;;;;20.26;52.04;97604.94;10527426;28;20385;-60
2022/08/11 02:08:20;;;;;;;1.73;1.63;;;;;;;20.26;52.02;97587.91;10508118;28;20052;-59
2022/08/11 02:13:52;;;;;;;2.05;1.67;;;;;;;20.26;51.97;97590.59;10490446;28;20052;-60
2022/08/11 02:25:20;;;;;;;1.85;1.50;;;;;;;20.25;52.04;97595.22;10526576;28;20052;-59
2022/08/11 02:33:21;;;;;;;2.05;1.80;;;;;;;20.25;52.04;97592.53;10502356;28;20115;-59
2022/08/11 02:36:44;;;;;;;2.17;1.80;;;;;;;20.25;52.05;97592.53;10490687;28;20053;-59
2022/08/11 02:42:32;;;;;;;1.65;1.50;;;;;;;20.25;51.92;97597.94;10478192;28;20048;-59
2022/08/11 02:54:19;;;;;;;2.38;1.70;;;;;;;20.25;52.12;97592.53;10504212;28;20570;-60
2022/08/11 02:59:59;;;;;;;1.58;1.42;;;;;;;20.25;52.11;97594.44;10498275;28;20372;-59
2022/08/11 03:05:47;;;;;;;1.80;1.65;;;;;;;20.25;52.05;97591.72;10515467;28;20048;-59
2022/08/11 03:17:09;;;;;;;1.77;1.60;;;;;;;20.23;52.05;97589.31;10536451;28;20044;-59
2022/08/11 03:22:37;;;;;;;1.52;1.42;;;;;;;20.22;52.05;97579.59;10481942;28;20091;-59
2022/08/11 03:28:03;;;;;;;1.65;1.55;;;;;;;20.24;51.97;97590.13;10475952;28;20055;-59
2022/08/11 03:39:36;;;;;;;1.70;1.60;;;;;;;20.23;52.07;97588.50;10498612;28;20058;-60
2022/08/11 03:45:16;;;;;;;1.60;1.50;;;;;;;20.22;52.12;97593.13;10523052;28;20044;-56
2022/08/11 03:50:57;;;;;;;3.47;1.55;;;;;;;20.22;52.11;97587.72;10514408;28;20063;-60
2022/08/11 03:56:53;;;;;;;1.80;1.42;;;;;;;20.22;52.17;97592.34;10509237;28;20049;-58
2022/08/11 04:02:44;;;;;;;1.90;1.55;;;;;;;20.23;52.14;97593.91;10495458;28;20044;-60
2022/08/11 04:08:12;;;;;;;1.52;1.40;;;;;;;20.23;52.25;97594.72;10489228;28;20109;-59
2022/08/11 04:13:51;;;;;;;1.55;1.40;;;;;;;20.22;52.32;97592.34;10521881;28;20044;-59
2022/08/11 04:19:16;;;;;;;1.55;1.38;;;;;;;20.21;52.29;97596.94;10519586;28;20442;-60
2022/08/11 04:24:57;;;;;;;4.05;2.00;;;;;;;20.03;48.77;97590.63;10516252;28;20044;-60
2022/08/11 04:30:18;;;;;;;1.92;1.83;;;;;;;19.63;48.72;97592.34;10497004;28;20044;-60
2022/08/11 04:35:47;;;;;;;2.50;2.13;;;;;;;19.36;49.13;97602.91;10489027;28;20553;-60
2022/08/11 04:43:19;;;;;;;4.50;1.88;;;;;;;19.17;49.31;97603.06;10507496;28;20048;-60
2022/08/11 05:06:12;;;;;;;2.58;2.00;;;;;;;19.22;51.16;97599.44;10532505;28;20069;-61
2022/08/11 05:11:34;;;;;;;5.20;2.78;;;;;;;19.44;51.19;97596.00;10489140;28;20114;-60
2022/08/11 05:57:01;;;;;;;6.43;2.77;;;;;;;19.88;51.36;97602.59;10505817;28;19920;-60
2022/08/11 06:02:20;;;;;;;4.38;2.90;;;;;;;19.90;51.23;97608.50;10499231;28;20044;-61
2022/08/11 06:07:40;;;;;;;7.13;3.03;;;;;;;19.90;51.46;97607.72;10486056;28;20052;-57
2022/08/11 06:13:01;;;;;;;5.40;2.65;;;;;;;19.90;51.45;97605.81;10505848;28;20044;-61
2022/08/11 06:18:20;;;;;;;5.57;2.90;;;;;;;19.91;51.58;97603.88;10501795;28;20049;-60
2022/08/11 06:23:41;;;;;;;6.90;2.88;;;;;;;19.91;51.55;97607.38;10484463;28;20064;-61
2022/08/11 06:29:02;;;;;;;5.20;2.70;;;;;;;19.92;51.66;97606.28;10505728;28;20052;-58
2022/08/11 06:34:33;;;;;;;7.40;2.97;;;;;;;19.92;51.66;97613.63;10501867;28;20052;-58
2022/08/11 06:40:01;;;;;;;6.00;2.88;;;;;;;19.93;51.72;97613.31;10499724;28;20060;-60
2022/08/11 06:45:27;;;;;;;3.60;2.53;;;;;;;19.93;51.78;97613.31;10498883;28;20056;-60
2022/08/11 07:02:19;;;;;;;6.88;2.55;;;;;;;19.94;51.99;97619.50;10510303;28;20056;-60
2022/08/11 07:30:53;;;;;;;4.97;2.65;;;;;;;19.97;52.28;97609.97;10487757;28;20048;-61
2022/08/11 07:36:14;;;;;;;3.83;2.50;;;;;;;19.98;52.29;97619.69;10497750;28;20048;-60
2022/08/11 07:41:34;;;;;;;3.50;2.50;;;;;;;19.97;52.50;97620.78;10501054;28;20093;-60
2022/08/11 07:52:32;;;;;;;;;;;;;;;19.98;52.65;97614.28;10511430;28;20044;-60
2022/08/11 08:20:33;;;;;;;3.13;2.20;;;;;;;19.99;52.71;97605.84;10516509;28;20154;-60
2022/08/11 08:25:54;;;;;;;4.68;2.50;;;;;;;20.00;52.73;97606.66;10490317;28;20097;-60
2022/08/11 08:31:14;;;;;;;3.08;2.45;;;;;;;20.00;52.76;97585.81;10503452;28;20053;-61
2022/08/11 08:36:34;;;;;;;3.47;2.10;;;;;;;20.00;52.89;97601.25;10503821;28;20109;-61
2022/08/11 08:41:56;;;;;;;4.60;2.80;;;;;;;20.00;52.88;97601.25;10513370;28;20052;-60
2022/08/11 08:47:17;;;;;;;3.28;2.38;;;;;;;20.01;52.80;97602.84;10524098;28;20052;-59
2022/08/11 08:52:42;;;;;;;4.35;2.58;;;;;;;20.02;52.94;97604.47;10502717;28;20052;-61
2022/08/11 08:58:01;;;;;;;3.85;2.20;;;;;;;20.00;52.94;97595.84;10488721;28;20056;-60
2022/08/11 09:03:21;;;;;;;2.88;2.30;;;;;;;20.01;53.08;97598.22;10487503;28;20052;-61
2022/08/11 09:08:41;;;;;;;3.53;2.20;;;;;;;20.02;53.16;97596.34;10507739;28;20075;-61
2022/08/11 09:14:02;;;;;;;2.92;2.20;;;;;;;20.02;53.11;97599.06;10502278;28;20052;-60
2022/08/11 09:19:22;;;;;;;5.13;2.45;;;;;;;20.02;53.04;97585.53;10490669;28;20392;-60
2022/08/11 09:30:20;;;;;;;2.63;2.30;;;;;;;20.03;53.15;97585.22;10503813;28;20052;-60
2022/08/11 09:35:44;;;;;;;2.75;2.20;;;;;;;20.03;53.17;97579.81;10501945;28;20048;-61
2022/08/11 09:41:07;;;;;;;3.40;2.13;;;;;;;20.05;53.21;97579.47;10507545;28;20052;-59
2022/08/11 09:46:27;;;;;;;3.05;2.33;;;;;;;20.04;53.31;97567.09;10500524;28;20056;-61
2022/08/11 09:51:48;;;;;;;2.30;2.10;;;;;;;20.04;53.33;97573.28;10494355;28;20063;-61
2022/08/11 10:02:47;;;;;;;3.20;2.50;;;;;;;20.05;53.44;97555.97;10500631;28;20056;-61
2022/08/11 10:08:11;;;;;;;4.18;2.10;;;;;;;20.05;53.35;97563.25;10488667;28;20032;-61
2022/08/11 10:13:33;;;;;;;2.78;2.10;;;;;;;20.06;53.42;97554.03;10500122;28;20044;-60
2022/08/11 10:18:54;;;;;;;2.78;2.30;;;;;;;20.05;53.43;97549.72;10485342;28;20403;-60
2022/08/11 10:35:31;;;;;;;2.55;2.00;;;;;;;20.07;53.42;97540.22;10523717;28;20419;-60
2022/08/11 10:43:01;;;;;;;3.65;2.17;;;;;;;20.07;53.60;97532.09;10511858;28;20056;-60
2022/08/11 11:03:27;;;;;;;2.73;2.10;;;;;;;20.07;53.54;97515.88;10519330;28;20056;-60
2022/08/11 11:08:52;;;;;;;3.20;1.83;;;;;;;20.08;53.54;97517.47;10519685;28;20067;-60
2022/08/11 11:19:57;;;;;;;2.63;2.05;;;;;;;20.08;53.58;97522.06;10493675;28;20519;-61
2022/08/11 11:25:32;;;;;;;2.95;2.08;;;;;;;20.08;53.71;97520.16;10548434;28;20040;-61
2022/08/11 11:30:55;;;;;;;2.30;1.73;;;;;;;20.09;53.65;97507.44;10500851;28;20123;-61
2022/08/11 11:36:21;;;;;;;1.95;1.65;;;;;;;20.10;53.80;97519.84;10543935;28;20453;-61
2022/08/11 11:41:41;;;;;;;2.00;1.80;;;;;;;20.09;53.68;97513.66;10508604;28;20137;-61
2022/08/11 11:47:01;;;;;;;1.77;1.55;;;;;;;20.10;53.69;97514.44;10503986;28;20050;-60
2022/08/11 11:52:21;;;;;;;3.03;2.00;;;;;;;20.10;53.62;97509.03;10501333;28;20411;-61
2022/08/11 12:03:19;;;;;;;2.10;1.90;;;;;;;20.11;53.72;97506.03;10499761;28;20439;-61
2022/08/11 12:08:39;;;;;;;2.17;1.80;;;;;;;20.11;54.07;97497.91;10501231;28;20344;-61
2022/08/11 12:14:03;;;;;;;2.00;1.77;;;;;;;20.11;53.74;97497.09;10518464;28;20056;-61
2022/08/11 12:19:23;;;;;;;3.30;1.90;;;;;;;20.12;53.91;97490.59;10512141;28;20418;-61
2022/08/11 12:30:23;;;;;;;2.30;1.73;;;;;;;20.12;53.89;97477.84;10505061;28;20060;-60
2022/08/11 12:35:42;;;;;;;3.00;1.90;;;;;;;20.12;53.85;97468.94;10508890;28;20048;-61
2022/08/11 12:46:43;;;;;;;2.00;1.80;;;;;;;20.13;53.88;97465.13;10495315;28;20044;-60
2022/08/11 12:52:09;;;;;;;1.85;1.50;;;;;;;20.12;53.91;97455.44;10517312;28;20052;-61
2022/08/11 13:08:47;;;;;;;1.75;1.65;;;;;;;20.14;53.93;97436.97;10512994;28;20110;-61
2022/08/11 13:14:07;;;;;;;2.20;1.67;;;;;;;20.14;54.01;97436.97;10502715;28;20056;-59
2022/08/11 13:19:27;;;;;;;1.73;1.63;;;;;;;20.15;53.92;97433.19;10518887;28;20040;-60
2022/08/11 13:24:48;;;;;;;1.77;1.65;;;;;;;20.15;54.04;97435.88;10515722;28;20500;-61
2022/08/11 13:35:49;;;;;;;1.80;1.67;;;;;;;20.15;54.00;97428.56;10494307;28;20127;-61
2022/08/11 13:46:47;;;;;;;2.28;1.58;;;;;;;20.15;54.04;97425.84;10519693;28;20041;-61
2022/08/11 13:52:15;;;;;;;2.58;1.52;;;;;;;20.15;54.08;97417.72;10501697;28;20059;-61
2022/08/11 13:57:34;;;;;;;1.88;1.75;;;;;;;20.16;54.14;97407.69;10501692;28;20102;-60
2022/08/11 14:02:55;;;;;;;1.70;1.60;;;;;;;20.17;54.19;97403.91;10491205;28;20060;-60
2022/08/11 14:08:18;;;;;;;2.38;1.65;;;;;;;20.17;54.11;97401.19;10514736;28;20049;-61
2022/08/11 14:13:39;;;;;;;1.70;1.60;;;;;;;20.18;54.09;97402.00;10514279;28;20049;-61
2022/08/11 14:19:03;;;;;;;1.85;1.38;;;;;;;20.17;54.19;97382.25;10499369;28;20089;-61
2022/08/11 14:24:23;;;;;;;1.88;1.52;;;;;;;20.17;54.15;97384.97;10473863;28;20091;-59
2022/08/11 14:29:43;;;;;;;2.17;1.50;;;;;;;20.18;54.19;97386.53;10503527;28;20568;-61
2022/08/11 14:35:03;;;;;;;1.63;1.52;;;;;;;20.19;54.12;97388.16;10497666;28;20055;-61
2022/08/11 14:51:40;;;;;;;1.60;1.50;;;;;;;20.19;54.12;97365.69;10511624;28;20056;-61
2022/08/11 14:57:02;;;;;;;1.45;1.35;;;;;;;20.19;54.23;97373.81;10524507;28;20041;-61
2022/08/11 15:08:00;;;;;;;1.73;1.50;;;;;;;20.20;54.34;97359.19;10516480;28;20040;-60
2022/08/11 15:13:20;;;;;;;1.60;1.50;;;;;;;20.20;54.21;97351.84;10517893;28;20048;-61
2022/08/11 15:18:39;;;;;;;2.15;1.60;;;;;;;20.20;54.17;97346.44;10484763;28;20052;-61
2022/08/11 15:46:46;;;;;;;1.45;1.30;;;;;;;20.22;54.27;97333.41;10495814;28;20056;-60
2022/08/11 15:52:08;;;;;;;1.50;1.30;;;;;;;20.23;54.28;97335.00;10516196;28;20400;-61
2022/08/11 16:08:46;;;;;;;1.58;1.48;;;;;;;20.23;54.31;97326.91;10518194;28;20101;-61
2022/08/11 16:19:47;;;;;;;1.83;1.42;;;;;;;20.25;54.36;97321.97;10500663;28;20049;-61
2022/08/11 16:25:09;;;;;;;1.67;1.50;;;;;;;20.26;53.95;97323.53;10505142;28;20380;-60
2022/08/11 16:30:30;;;;;;;1.67;1.58;;;;;;;20.27;52.96;97322.44;10509059;28;20055;-59
2022/08/11 16:47:17;;;;;;;1.42;1.30;;;;;;;20.27;51.25;97319.75;10503244;28;20033;-61
2022/08/11 16:52:36;;;;;;;1.87;1.73;;;;;;;20.26;50.79;97307.31;10497068;28;20059;-61
2022/08/11 17:15:01;;;;;;;1.63;1.50;;;;;;;20.24;49.85;97301.41;10518601;28;20039;-60
2022/08/11 17:20:20;;;;;;;1.55;1.45;;;;;;;20.24;49.65;97303.34;10526814;28;20056;-61
2022/08/11 17:25:41;;;;;;;1.40;1.30;;;;;;;20.22;49.55;97306.34;10505469;28;20110;-61
2022/08/11 17:36:43;;;;;;;1.83;1.52;;;;;;;20.21;49.82;97303.94;10502546;28;20087;-60
2022/08/11 18:04:39;;;;;;;1.25;1.15;;;;;;;20.11;48.63;97310.47;10500448;28;20064;-60
